bmspoc.tbs
100.0000 TLOS
.0000 TLOS in REX

0.0000

UNSTAKED

100.0000 TLOS

STAKED

NET 0.0000 / CPU 0.0000

UNSTAKING

0.49 ms. / 0.11 hr.

CPU 90.00 TLOS

5.18 KB / 0.30 GB

BANDWIDTH 10.00 TLOS

108.89 KB / 584.28 KB

MEMORY USAGE 18.64 %
TOKENS
101.0000 MAIL
VOTES
Showing 1 to 200 entries
ACTIONS
DATE BLOCK TRX TYPE DATA
2020-03-01T11:51:45.500 76470604 3f519b... logstats {device_id=4000, temperature=10, humidity=0.5, vin=0, lon=-119.3123, pressure=340.8312, lat=47.1816}
2020-03-01T11:51:40.500 76470594 7a2bf7... logstats {device_id=3000, temperature=12.686100000000007, humidity=6.4892, vin=0, lon=115.8605, pressure=614.5884000000001, lat=-31.9505}
2020-03-01T11:51:36.000 76470585 9a5aaf... logstats {device_id=2000, temperature=10, humidity=0.5, vin=0, lon=-119.3123, pressure=340.8312, lat=47.1816}
2020-03-01T11:51:32.500 76470578 eb0e14... logstats {device_id=1000, temperature=9.8, humidity=0.51, vin=0, lon=-122.3385, pressure=1004.6181000000001, lat=47.6143}
2020-03-01T11:51:12.000 76470537 7e9a6e... logstats {device_id=4000, temperature=10, humidity=0.5, vin=0, lon=-119.3123, pressure=340.8312, lat=47.1816}
2020-03-01T11:51:06.000 76470526 860f19... logstats {device_id=3000, temperature=12.686100000000007, humidity=6.4892, vin=0, lon=115.8605, pressure=614.5884000000001, lat=-31.9505}
2020-03-01T11:51:02.000 76470518 15ea93... logstats {device_id=2000, temperature=10, humidity=0.5, vin=0, lon=-119.3123, pressure=340.8312, lat=47.1816}
2020-03-01T11:50:58.500 76470512 60fc47... logstats {device_id=1000, temperature=9.8, humidity=0.51, vin=0, lon=-122.3385, pressure=1004.6181000000001, lat=47.6143}
2020-03-01T11:50:37.500 76470470 babb3f... logstats {device_id=4000, temperature=10, humidity=0.5, vin=0, lon=-119.3123, pressure=340.8312, lat=47.1816}
2020-03-01T11:50:32.000 76470459 999706... logstats {device_id=3000, temperature=12.686100000000007, humidity=6.4892, vin=0, lon=115.8605, pressure=614.5884000000001, lat=-31.9505}
2020-03-01T11:50:28.000 76470451 d53680... logstats {device_id=2000, temperature=10, humidity=0.5, vin=0, lon=-119.3123, pressure=340.8312, lat=47.1816}
2020-03-01T11:50:24.500 76470444 443fd8... logstats {device_id=1000, temperature=9.8, humidity=0.51, vin=0, lon=-122.3385, pressure=1004.6181000000001, lat=47.6143}
2020-03-01T11:50:03.000 76470402 193d92... logstats {device_id=4000, temperature=10, humidity=0.5, vin=0, lon=-119.3123, pressure=340.8312, lat=47.1816}
2020-03-01T11:49:58.000 76470392 f44695... logstats {device_id=3000, temperature=12.686100000000007, humidity=6.4892, vin=0, lon=115.8605, pressure=614.5884000000001, lat=-31.9505}
2020-03-01T11:49:53.500 76470383 050e5f... logstats {device_id=2000, temperature=10, humidity=0.5, vin=0, lon=-119.3123, pressure=340.8312, lat=47.1816}
2020-03-01T11:49:50.500 76470377 5bfdb4... logstats {device_id=1000, temperature=9.8, humidity=0.51, vin=0, lon=-122.3385, pressure=1004.6181000000001, lat=47.6143}
2020-03-01T11:49:29.000 76470335 0d1805... logstats {device_id=4000, temperature=10, humidity=0.5, vin=0, lon=-119.3123, pressure=340.8312, lat=47.1816}
2020-03-01T11:49:24.000 76470325 e495d6... logstats {device_id=3000, temperature=12.686100000000007, humidity=6.4892, vin=0, lon=115.8605, pressure=614.5884000000001, lat=-31.9505}
2020-03-01T11:49:19.500 76470316 654ff2... logstats {device_id=2000, temperature=10, humidity=0.5, vin=0, lon=-119.3123, pressure=340.8312, lat=47.1816}
2020-03-01T11:49:18.000 76470313 7b4369... logstats {device_id=1000, temperature=9.8, humidity=0.51, vin=0, lon=-122.3385, pressure=1004.6181000000001, lat=47.6143}
2020-03-01T11:48:55.000 76470268 5b6ab4... logstats {device_id=4000, temperature=10, humidity=0.5, vin=0, lon=-119.3123, pressure=340.8312, lat=47.1816}
2020-03-01T11:48:49.500 76470258 e81f5c... logstats {device_id=3000, temperature=12.686100000000007, humidity=6.4892, vin=0, lon=115.8605, pressure=614.5884000000001, lat=-31.9505}
2020-03-01T11:48:45.500 76470250 8ab74c... logstats {device_id=2000, temperature=10, humidity=0.5, vin=0, lon=-119.3123, pressure=340.8312, lat=47.1816}
2020-03-01T11:48:42.000 76470243 61551a... logstats {device_id=1000, temperature=9.8, humidity=0.51, vin=0, lon=-122.3385, pressure=1004.6181000000001, lat=47.6143}
2020-03-01T11:48:20.500 76470200 4295b7... logstats {device_id=4000, temperature=10, humidity=0.5, vin=0, lon=-119.3123, pressure=340.8312, lat=47.1816}
2020-03-01T11:48:15.000 76470189 10ac36... logstats {device_id=3000, temperature=12.686100000000007, humidity=6.4892, vin=0, lon=115.8605, pressure=614.5884000000001, lat=-31.9505}
2020-03-01T11:48:11.000 76470181 aea808... logstats {device_id=2000, temperature=10, humidity=0.5, vin=0, lon=-119.3123, pressure=340.8312, lat=47.1816}
2020-03-01T11:48:07.500 76470174 6cf9bf... logstats {device_id=1000, temperature=9.8, humidity=0.51, vin=0, lon=-122.3385, pressure=1004.6181000000001, lat=47.6143}
2020-03-01T11:47:46.500 76470133 00117b... logstats {device_id=4000, temperature=10, humidity=0.5, vin=0, lon=-119.3123, pressure=340.8312, lat=47.1816}
2020-03-01T11:47:41.000 76470123 129b32... logstats {device_id=3000, temperature=12.686100000000007, humidity=6.4892, vin=0, lon=115.8605, pressure=614.5884000000001, lat=-31.9505}
2020-03-01T11:47:36.500 76470114 803ec8... logstats {device_id=2000, temperature=10, humidity=0.5, vin=0, lon=-119.3123, pressure=340.8312, lat=47.1816}
2020-03-01T11:47:33.500 76470108 0cd4b2... logstats {device_id=1000, temperature=9.8, humidity=0.51, vin=0, lon=-122.3385, pressure=1004.6181000000001, lat=47.6143}
2020-03-01T11:47:12.500 76470066 898230... logstats {device_id=4000, temperature=10, humidity=0.5, vin=0, lon=-119.3123, pressure=340.8312, lat=47.1816}
2020-03-01T11:47:12.000 76470065 56b26d... logstats {device_id=3000, temperature=12.686100000000007, humidity=6.4892, vin=0, lon=115.8605, pressure=614.5884000000001, lat=-31.9505}
2020-03-01T11:47:02.500 76470046 144a06... logstats {device_id=2000, temperature=10, humidity=0.5, vin=0, lon=-119.3123, pressure=340.8312, lat=47.1816}
2020-03-01T11:46:59.000 76470040 40a7ca... logstats {device_id=1000, temperature=9.8, humidity=0.51, vin=0, lon=-122.3385, pressure=1004.6181000000001, lat=47.6143}
2020-03-01T11:46:38.000 76469999 fa0cd8... logstats {device_id=4000, temperature=10, humidity=0.5, vin=0, lon=-119.3123, pressure=340.8312, lat=47.1816}
2020-03-01T11:46:32.500 76469988 1f8e55... logstats {device_id=3000, temperature=12.686100000000007, humidity=6.4892, vin=0, lon=115.8605, pressure=614.5884000000001, lat=-31.9505}
2020-03-01T11:46:28.500 76469980 22d106... logstats {device_id=2000, temperature=10, humidity=0.5, vin=0, lon=-119.3123, pressure=340.8312, lat=47.1816}
2020-03-01T11:46:25.000 76469973 f41327... logstats {device_id=1000, temperature=9.8, humidity=0.51, vin=0, lon=-122.3385, pressure=1004.6181000000001, lat=47.6143}
2020-03-01T11:46:03.500 76469930 ddb2c2... logstats {device_id=4000, temperature=10, humidity=0.5, vin=0, lon=-119.3123, pressure=340.8312, lat=47.1816}
2020-03-01T11:45:58.500 76469920 86fca2... logstats {device_id=3000, temperature=12.686100000000007, humidity=6.4892, vin=0, lon=115.8605, pressure=614.5884000000001, lat=-31.9505}
2020-03-01T11:45:54.000 76469911 412cf1... logstats {device_id=2000, temperature=10, humidity=0.5, vin=0, lon=-119.3123, pressure=340.8312, lat=47.1816}
2020-03-01T11:45:51.000 76469906 5d0bc3... logstats {device_id=1000, temperature=9.8, humidity=0.51, vin=0, lon=-122.3385, pressure=1004.6181000000001, lat=47.6143}
2020-03-01T11:45:29.500 76469864 8b9abc... logstats {device_id=4000, temperature=10, humidity=0.5, vin=0, lon=-119.3123, pressure=340.8312, lat=47.1816}
2020-03-01T11:45:24.500 76469854 1e4889... logstats {device_id=3000, temperature=12.686100000000007, humidity=6.4892, vin=0, lon=115.8605, pressure=614.5884000000001, lat=-31.9505}
2020-03-01T11:45:20.000 76469845 b1c7f3... logstats {device_id=2000, temperature=10, humidity=0.5, vin=0, lon=-119.3123, pressure=340.8312, lat=47.1816}
2020-03-01T11:45:16.500 76469838 3126c6... logstats {device_id=1000, temperature=9.8, humidity=0.51, vin=0, lon=-122.3385, pressure=1004.6181000000001, lat=47.6143}
2020-03-01T11:44:55.500 76469796 5aac0e... logstats {device_id=4000, temperature=10, humidity=0.5, vin=0, lon=-119.3123, pressure=340.8312, lat=47.1816}
2020-03-01T11:44:50.000 76469786 ce7cdc... logstats {device_id=3000, temperature=12.686100000000007, humidity=6.4892, vin=0, lon=115.8605, pressure=614.5884000000001, lat=-31.9505}
2020-03-01T11:44:46.000 76469778 1e77fb... logstats {device_id=2000, temperature=10, humidity=0.5, vin=0, lon=-119.3123, pressure=340.8312, lat=47.1816}
2020-03-01T11:44:42.500 76469771 c2b3de... logstats {device_id=1000, temperature=9.8, humidity=0.51, vin=0, lon=-122.3385, pressure=1004.6181000000001, lat=47.6143}
2020-03-01T11:44:21.000 76469729 842fde... logstats {device_id=4000, temperature=10, humidity=0.5, vin=0, lon=-119.3123, pressure=340.8312, lat=47.1816}
2020-03-01T11:44:16.000 76469719 5b2859... logstats {device_id=3000, temperature=12.686100000000007, humidity=6.4892, vin=0, lon=115.8605, pressure=614.5884000000001, lat=-31.9505}
2020-03-01T11:44:11.500 76469710 21194f... logstats {device_id=2000, temperature=10, humidity=0.5, vin=0, lon=-119.3123, pressure=340.8312, lat=47.1816}
2020-03-01T11:44:08.500 76469704 563a27... logstats {device_id=1000, temperature=9.8, humidity=0.51, vin=0, lon=-122.3385, pressure=1004.6181000000001, lat=47.6143}
2020-03-01T11:43:47.000 76469662 495bb6... logstats {device_id=4000, temperature=10, humidity=0.5, vin=0, lon=-119.3123, pressure=340.8312, lat=47.1816}
2020-03-01T11:43:42.000 76469652 ee7c3d... logstats {device_id=3000, temperature=12.686100000000007, humidity=6.4892, vin=0, lon=115.8605, pressure=614.5884000000001, lat=-31.9505}
2020-03-01T11:43:37.500 76469643 012353... logstats {device_id=2000, temperature=10, humidity=0.5, vin=0, lon=-119.3123, pressure=340.8312, lat=47.1816}
2020-03-01T11:43:34.000 76469636 61db55... logstats {device_id=1000, temperature=9.8, humidity=0.51, vin=0, lon=-122.3385, pressure=1004.6181000000001, lat=47.6143}
2020-03-01T11:43:13.000 76469595 a84723... logstats {device_id=4000, temperature=10, humidity=0.5, vin=0, lon=-119.3123, pressure=340.8312, lat=47.1816}
2020-03-01T11:43:07.500 76469584 9ca91e... logstats {device_id=3000, temperature=12.686100000000007, humidity=6.4892, vin=0, lon=115.8605, pressure=614.5884000000001, lat=-31.9505}
2020-03-01T11:43:03.500 76469576 e9c87f... logstats {device_id=2000, temperature=10, humidity=0.5, vin=0, lon=-119.3123, pressure=340.8312, lat=47.1816}
2020-03-01T11:43:00.500 76469570 dc1f5b... logstats {device_id=1000, temperature=9.8, humidity=0.51, vin=0, lon=-122.3385, pressure=1004.6181000000001, lat=47.6143}
2020-03-01T11:42:38.000 76469528 75429e... logstats {device_id=4000, temperature=10, humidity=0.5, vin=0, lon=-119.3123, pressure=340.8312, lat=47.1816}
2020-03-01T11:42:32.500 76469518 812a55... logstats {device_id=3000, temperature=12.686100000000007, humidity=6.4892, vin=0, lon=115.8605, pressure=614.5884000000001, lat=-31.9505}
2020-03-01T11:42:28.500 76469510 661b6b... logstats {device_id=2000, temperature=10, humidity=0.5, vin=0, lon=-119.3123, pressure=340.8312, lat=47.1816}
2020-03-01T11:42:25.500 76469504 18e5c5... logstats {device_id=1000, temperature=9.8, humidity=0.51, vin=0, lon=-122.3385, pressure=1004.6181000000001, lat=47.6143}
2020-03-01T11:42:04.000 76469461 ccb0e6... logstats {device_id=4000, temperature=10, humidity=0.5, vin=0, lon=-119.3123, pressure=340.8312, lat=47.1816}
2020-03-01T11:41:58.500 76469450 1aa257... logstats {device_id=3000, temperature=12.686100000000007, humidity=6.4892, vin=0, lon=115.8605, pressure=614.5884000000001, lat=-31.9505}
2020-03-01T11:41:54.000 76469441 d49825... logstats {device_id=2000, temperature=10, humidity=0.5, vin=0, lon=-119.3123, pressure=340.8312, lat=47.1816}
2020-03-01T11:41:51.000 76469435 956c9a... logstats {device_id=1000, temperature=9.8, humidity=0.51, vin=0, lon=-122.3385, pressure=1004.6181000000001, lat=47.6143}
2020-03-01T11:41:30.000 76469394 e260ca... logstats {device_id=4000, temperature=10, humidity=0.5, vin=0, lon=-119.3123, pressure=340.8312, lat=47.1816}
2020-03-01T11:41:24.500 76469383 9fce69... logstats {device_id=3000, temperature=12.686100000000007, humidity=6.4892, vin=0, lon=115.8605, pressure=614.5884000000001, lat=-31.9505}
2020-03-01T11:41:20.000 76469375 9431b9... logstats {device_id=2000, temperature=10, humidity=0.5, vin=0, lon=-119.3123, pressure=340.8312, lat=47.1816}
2020-03-01T11:41:17.000 76469369 1b2648... logstats {device_id=1000, temperature=9.8, humidity=0.51, vin=0, lon=-122.3385, pressure=1004.6181000000001, lat=47.6143}
2020-03-01T11:40:55.500 76469326 66cb7d... logstats {device_id=4000, temperature=10, humidity=0.5, vin=0, lon=-119.3123, pressure=340.8312, lat=47.1816}
2020-03-01T11:40:54.000 76469323 5e36d0... logstats {device_id=3000, temperature=12.686100000000007, humidity=6.4892, vin=0, lon=115.8605, pressure=614.5884000000001, lat=-31.9505}
2020-03-01T11:40:46.000 76469307 cc57c1... logstats {device_id=2000, temperature=10, humidity=0.5, vin=0, lon=-119.3123, pressure=340.8312, lat=47.1816}
2020-03-01T11:40:42.500 76469300 7f03b4... logstats {device_id=1000, temperature=9.8, humidity=0.51, vin=0, lon=-122.3385, pressure=1004.6181000000001, lat=47.6143}
2020-03-01T11:40:21.500 76469260 32bb40... logstats {device_id=4000, temperature=10, humidity=0.5, vin=0, lon=-119.3123, pressure=340.8312, lat=47.1816}
2020-03-01T11:40:16.000 76469249 e7f46e... logstats {device_id=3000, temperature=12.686100000000007, humidity=6.4892, vin=0, lon=115.8605, pressure=614.5884000000001, lat=-31.9505}
2020-03-01T11:40:12.000 76469241 cd8737... logstats {device_id=2000, temperature=10, humidity=0.5, vin=0, lon=-119.3123, pressure=340.8312, lat=47.1816}
2020-03-01T11:40:08.500 76469234 42ac2b... logstats {device_id=1000, temperature=9.8, humidity=0.51, vin=0, lon=-122.3385, pressure=1004.6181000000001, lat=47.6143}
2020-03-01T11:39:47.000 76469191 7f8c51... logstats {device_id=4000, temperature=10, humidity=0.5, vin=0, lon=-119.3123, pressure=340.8312, lat=47.1816}
2020-03-01T11:39:42.000 76469181 ec1214... logstats {device_id=3000, temperature=12.686100000000007, humidity=6.4892, vin=0, lon=115.8605, pressure=614.5884000000001, lat=-31.9505}
2020-03-01T11:39:38.000 76469173 66059b... logstats {device_id=2000, temperature=10, humidity=0.5, vin=0, lon=-119.3123, pressure=340.8312, lat=47.1816}
2020-03-01T11:39:34.500 76469167 0bc0a4... logstats {device_id=1000, temperature=9.8, humidity=0.51, vin=0, lon=-122.3385, pressure=1004.6181000000001, lat=47.6143}
2020-03-01T11:39:13.000 76469125 161de1... logstats {device_id=4000, temperature=10, humidity=0.5, vin=0, lon=-119.3123, pressure=340.8312, lat=47.1816}
2020-03-01T11:39:08.000 76469115 c826cf... logstats {device_id=3000, temperature=12.686100000000007, humidity=6.4892, vin=0, lon=115.8605, pressure=614.5884000000001, lat=-31.9505}
2020-03-01T11:39:03.500 76469106 fb0735... logstats {device_id=2000, temperature=10, humidity=0.5, vin=0, lon=-119.3123, pressure=340.8312, lat=47.1816}
2020-03-01T11:39:00.500 76469100 b077e4... logstats {device_id=1000, temperature=9.8, humidity=0.51, vin=0, lon=-122.3385, pressure=1004.6181000000001, lat=47.6143}
2020-03-01T11:38:39.000 76469057 bb8491... logstats {device_id=4000, temperature=10, humidity=0.5, vin=0, lon=-119.3123, pressure=340.8312, lat=47.1816}
2020-03-01T11:38:33.500 76469047 078ad5... logstats {device_id=3000, temperature=12.686100000000007, humidity=6.4892, vin=0, lon=115.8605, pressure=614.5884000000001, lat=-31.9505}
2020-03-01T11:38:29.500 76469039 dde9b9... logstats {device_id=2000, temperature=10, humidity=0.5, vin=0, lon=-119.3123, pressure=340.8312, lat=47.1816}
2020-03-01T11:38:26.000 76469032 5da6f7... logstats {device_id=1000, temperature=9.8, humidity=0.51, vin=0, lon=-122.3385, pressure=1004.6181000000001, lat=47.6143}
2020-03-01T11:38:05.000 76468991 436e53... logstats {device_id=4000, temperature=10, humidity=0.5, vin=0, lon=-119.3123, pressure=340.8312, lat=47.1816}
2020-03-01T11:37:59.500 76468980 e01d54... logstats {device_id=3000, temperature=12.686100000000007, humidity=6.4892, vin=0, lon=115.8605, pressure=614.5884000000001, lat=-31.9505}
2020-03-01T11:37:55.500 76468972 da235b... logstats {device_id=2000, temperature=10, humidity=0.5, vin=0, lon=-119.3123, pressure=340.8312, lat=47.1816}
2020-03-01T11:37:52.000 76468965 763c05... logstats {device_id=1000, temperature=9.8, humidity=0.51, vin=0, lon=-122.3385, pressure=1004.6181000000001, lat=47.6143}
2020-03-01T11:37:31.000 76468923 06ca57... logstats {device_id=4000, temperature=10, humidity=0.5, vin=0, lon=-119.3123, pressure=340.8312, lat=47.1816}
2020-03-01T11:37:25.500 76468913 739750... logstats {device_id=3000, temperature=12.686100000000007, humidity=6.4892, vin=0, lon=115.8605, pressure=614.5884000000001, lat=-31.9505}
2020-03-01T11:37:21.000 76468904 0d83aa... logstats {device_id=2000, temperature=10, humidity=0.5, vin=0, lon=-119.3123, pressure=340.8312, lat=47.1816}
2020-03-01T11:37:18.000 76468898 72d031... logstats {device_id=1000, temperature=9.8, humidity=0.51, vin=0, lon=-122.3385, pressure=1004.6181000000001, lat=47.6143}
2020-03-01T11:36:56.500 76468856 a8e233... logstats {device_id=4000, temperature=10, humidity=0.5, vin=0, lon=-119.3123, pressure=340.8312, lat=47.1816}
2020-03-01T11:36:51.000 76468845 7a4563... logstats {device_id=3000, temperature=12.686100000000007, humidity=6.4892, vin=0, lon=115.8605, pressure=614.5884000000001, lat=-31.9505}
2020-03-01T11:36:47.000 76468837 b3144f... logstats {device_id=2000, temperature=10, humidity=0.5, vin=0, lon=-119.3123, pressure=340.8312, lat=47.1816}
2020-03-01T11:36:43.500 76468830 f340aa... logstats {device_id=1000, temperature=9.8, humidity=0.51, vin=0, lon=-122.3385, pressure=1004.6181000000001, lat=47.6143}
2020-03-01T11:36:22.500 76468789 c61245... logstats {device_id=4000, temperature=10, humidity=0.5, vin=0, lon=-119.3123, pressure=340.8312, lat=47.1816}
2020-03-01T11:36:17.000 76468779 7a10aa... logstats {device_id=3000, temperature=12.686100000000007, humidity=6.4892, vin=0, lon=115.8605, pressure=614.5884000000001, lat=-31.9505}
2020-03-01T11:36:12.500 76468770 6b7455... logstats {device_id=2000, temperature=10, humidity=0.5, vin=0, lon=-119.3123, pressure=340.8312, lat=47.1816}
2020-03-01T11:36:09.500 76468764 5aa251... logstats {device_id=1000, temperature=9.8, humidity=0.51, vin=0, lon=-122.3385, pressure=1004.6181000000001, lat=47.6143}
2020-03-01T11:35:48.000 76468721 b909a1... logstats {device_id=4000, temperature=10, humidity=0.5, vin=0, lon=-119.3123, pressure=340.8312, lat=47.1816}
2020-03-01T11:35:42.500 76468710 73df61... logstats {device_id=3000, temperature=12.686100000000007, humidity=6.4892, vin=0, lon=115.8605, pressure=614.5884000000001, lat=-31.9505}
2020-03-01T11:35:38.500 76468702 e41426... logstats {device_id=2000, temperature=10, humidity=0.5, vin=0, lon=-119.3123, pressure=340.8312, lat=47.1816}
2020-03-01T11:35:35.000 76468695 3b5730... logstats {device_id=1000, temperature=9.8, humidity=0.51, vin=0, lon=-122.3385, pressure=1004.6181000000001, lat=47.6143}
2020-03-01T11:35:13.500 76468653 e501d1... logstats {device_id=4000, temperature=10, humidity=0.5, vin=0, lon=-119.3123, pressure=340.8312, lat=47.1816}
2020-03-01T11:35:08.500 76468643 71e14c... logstats {device_id=3000, temperature=12.686100000000007, humidity=6.4892, vin=0, lon=115.8605, pressure=614.5884000000001, lat=-31.9505}
2020-03-01T11:35:04.000 76468635 bcfbc8... logstats {device_id=2000, temperature=10, humidity=0.5, vin=0, lon=-119.3123, pressure=340.8312, lat=47.1816}
2020-03-01T11:35:01.000 76468629 6df962... logstats {device_id=1000, temperature=9.8, humidity=0.51, vin=0, lon=-122.3385, pressure=1004.6181000000001, lat=47.6143}
2020-03-01T11:34:39.500 76468586 2a44d2... logstats {device_id=4000, temperature=10, humidity=0.5, vin=0, lon=-119.3123, pressure=340.8312, lat=47.1816}
2020-03-01T11:34:36.000 76468579 630eb4... logstats {device_id=2000, temperature=10, humidity=0.5, vin=0, lon=-119.3123, pressure=340.8312, lat=47.1816}
2020-03-01T11:34:36.000 76468579 e6eac8... logstats {device_id=3000, temperature=12.686100000000007, humidity=6.4892, vin=0, lon=115.8605, pressure=614.5884000000001, lat=-31.9505}
2020-03-01T11:34:27.000 76468561 8db93f... logstats {device_id=1000, temperature=9.8, humidity=0.51, vin=0, lon=-122.3385, pressure=1004.6181000000001, lat=47.6143}
2020-03-01T11:34:06.000 76468521 bef046... logstats {device_id=4000, temperature=10, humidity=0.5, vin=0, lon=-119.3123, pressure=340.8312, lat=47.1816}
2020-03-01T11:34:00.500 76468510 44077b... logstats {device_id=3000, temperature=12.686100000000007, humidity=6.4892, vin=0, lon=115.8605, pressure=614.5884000000001, lat=-31.9505}
2020-03-01T11:33:56.000 76468501 e039e7... logstats {device_id=2000, temperature=10, humidity=0.5, vin=0, lon=-119.3123, pressure=340.8312, lat=47.1816}
2020-03-01T11:33:52.500 76468494 0082a5... logstats {device_id=1000, temperature=9.8, humidity=0.51, vin=0, lon=-122.3385, pressure=1004.6181000000001, lat=47.6143}
2020-03-01T11:33:31.000 76468451 46c871... logstats {device_id=4000, temperature=10, humidity=0.5, vin=0, lon=-119.3123, pressure=340.8312, lat=47.1816}
2020-03-01T11:33:26.000 76468441 fd96e4... logstats {device_id=3000, temperature=12.686100000000007, humidity=6.4892, vin=0, lon=115.8605, pressure=614.5884000000001, lat=-31.9505}
2020-03-01T11:33:22.000 76468433 e83d1d... logstats {device_id=2000, temperature=10, humidity=0.5, vin=0, lon=-119.3123, pressure=340.8312, lat=47.1816}
2020-03-01T11:33:18.500 76468426 bc5034... logstats {device_id=1000, temperature=9.8, humidity=0.51, vin=0, lon=-122.3385, pressure=1004.6181000000001, lat=47.6143}
2020-03-01T11:32:57.000 76468387 225ca5... logstats {device_id=4000, temperature=10, humidity=0.5, vin=0, lon=-119.3123, pressure=340.8312, lat=47.1816}
2020-03-01T11:32:52.000 76468377 8e9a48... logstats {device_id=3000, temperature=12.686100000000007, humidity=6.4892, vin=0, lon=115.8605, pressure=614.5884000000001, lat=-31.9505}
2020-03-01T11:32:48.000 76468369 8d70f0... logstats {device_id=2000, temperature=10, humidity=0.5, vin=0, lon=-119.3123, pressure=340.8312, lat=47.1816}
2020-03-01T11:32:44.500 76468362 43a0fd... logstats {device_id=1000, temperature=9.8, humidity=0.51, vin=0, lon=-122.3385, pressure=1004.6181000000001, lat=47.6143}
2020-03-01T11:32:22.500 76468318 a06ad5... logstats {device_id=4000, temperature=10, humidity=0.5, vin=0, lon=-119.3123, pressure=340.8312, lat=47.1816}
2020-03-01T11:32:17.000 76468308 dac5a4... logstats {device_id=3000, temperature=12.686100000000007, humidity=6.4892, vin=0, lon=115.8605, pressure=614.5884000000001, lat=-31.9505}
2020-03-01T11:32:12.500 76468299 8b9874... logstats {device_id=2000, temperature=10, humidity=0.5, vin=0, lon=-119.3123, pressure=340.8312, lat=47.1816}
2020-03-01T11:32:09.000 76468292 2f3243... logstats {device_id=1000, temperature=9.8, humidity=0.51, vin=0, lon=-122.3385, pressure=1004.6181000000001, lat=47.6143}
2020-03-01T11:31:48.000 76468251 ddcedb... logstats {device_id=4000, temperature=10, humidity=0.5, vin=0, lon=-119.3123, pressure=340.8312, lat=47.1816}
2020-03-01T11:31:42.500 76468240 9344cf... logstats {device_id=3000, temperature=12.686100000000007, humidity=6.4892, vin=0, lon=115.8605, pressure=614.5884000000001, lat=-31.9505}
2020-03-01T11:31:38.500 76468232 496c39... logstats {device_id=2000, temperature=10, humidity=0.5, vin=0, lon=-119.3123, pressure=340.8312, lat=47.1816}
2020-03-01T11:31:35.000 76468225 dfac1c... logstats {device_id=1000, temperature=9.8, humidity=0.51, vin=0, lon=-122.3385, pressure=1004.6181000000001, lat=47.6143}
2020-03-01T11:31:14.000 76468183 f8c019... logstats {device_id=4000, temperature=10, humidity=0.5, vin=0, lon=-119.3123, pressure=340.8312, lat=47.1816}
2020-03-01T11:31:08.500 76468173 ae8322... logstats {device_id=3000, temperature=12.686100000000007, humidity=6.4892, vin=0, lon=115.8605, pressure=614.5884000000001, lat=-31.9505}
2020-03-01T11:31:04.000 76468164 640a6a... logstats {device_id=2000, temperature=10, humidity=0.5, vin=0, lon=-119.3123, pressure=340.8312, lat=47.1816}
2020-03-01T11:31:01.000 76468158 73a1b1... logstats {device_id=1000, temperature=9.8, humidity=0.51, vin=0, lon=-122.3385, pressure=1004.6181000000001, lat=47.6143}
2020-03-01T11:30:40.000 76468117 04fca2... logstats {device_id=4000, temperature=10, humidity=0.5, vin=0, lon=-119.3123, pressure=340.8312, lat=47.1816}
2020-03-01T11:30:34.000 76468105 d58c7f... logstats {device_id=3000, temperature=12.686100000000007, humidity=6.4892, vin=0, lon=115.8605, pressure=614.5884000000001, lat=-31.9505}
2020-03-01T11:30:30.000 76468097 9701ae... logstats {device_id=2000, temperature=10, humidity=0.5, vin=0, lon=-119.3123, pressure=340.8312, lat=47.1816}
2020-03-01T11:30:26.500 76468090 3e1be3... logstats {device_id=1000, temperature=9.8, humidity=0.51, vin=0, lon=-122.3385, pressure=1004.6181000000001, lat=47.6143}
2020-03-01T11:30:05.000 76468048 f36959... logstats {device_id=4000, temperature=10, humidity=0.5, vin=0, lon=-119.3123, pressure=340.8312, lat=47.1816}
2020-03-01T11:30:00.000 76468038 76935d... logstats {device_id=3000, temperature=12.686100000000007, humidity=6.4892, vin=0, lon=115.8605, pressure=614.5884000000001, lat=-31.9505}
2020-03-01T11:29:55.500 76468030 976320... logstats {device_id=2000, temperature=10, humidity=0.5, vin=0, lon=-119.3123, pressure=340.8312, lat=47.1816}
2020-03-01T11:29:52.500 76468024 cd8668... logstats {device_id=1000, temperature=9.8, humidity=0.51, vin=0, lon=-122.3385, pressure=1004.6181000000001, lat=47.6143}
2020-03-01T11:29:31.000 76467981 41dfc3... logstats {device_id=4000, temperature=10, humidity=0.5, vin=0, lon=-119.3123, pressure=340.8312, lat=47.1816}
2020-03-01T11:29:25.500 76467970 e372d0... logstats {device_id=3000, temperature=12.686100000000007, humidity=6.4892, vin=0, lon=115.8605, pressure=614.5884000000001, lat=-31.9505}
2020-03-01T11:29:21.500 76467962 d05007... logstats {device_id=2000, temperature=10, humidity=0.5, vin=0, lon=-119.3123, pressure=340.8312, lat=47.1816}
2020-03-01T11:29:18.000 76467955 7c3410... logstats {device_id=1000, temperature=9.8, humidity=0.51, vin=0, lon=-122.3385, pressure=1004.6181000000001, lat=47.6143}
2020-03-01T11:28:56.500 76467913 666547... logstats {device_id=4000, temperature=10, humidity=0.5, vin=0, lon=-119.3123, pressure=340.8312, lat=47.1816}
2020-03-01T11:28:51.500 76467903 497a32... logstats {device_id=3000, temperature=12.686100000000007, humidity=6.4892, vin=0, lon=115.8605, pressure=614.5884000000001, lat=-31.9505}
2020-03-01T11:28:47.000 76467895 7a53c8... logstats {device_id=2000, temperature=10, humidity=0.5, vin=0, lon=-119.3123, pressure=340.8312, lat=47.1816}
2020-03-01T11:28:44.000 76467889 0f69e8... logstats {device_id=1000, temperature=9.8, humidity=0.51, vin=0, lon=-122.3385, pressure=1004.6181000000001, lat=47.6143}
2020-03-01T11:28:22.500 76467846 f32c1e... logstats {device_id=4000, temperature=10, humidity=0.5, vin=0, lon=-119.3123, pressure=340.8312, lat=47.1816}
2020-03-01T11:28:18.000 76467837 38d687... logstats {device_id=3000, temperature=12.686100000000007, humidity=6.4892, vin=0, lon=115.8605, pressure=614.5884000000001, lat=-31.9505}
2020-03-01T11:28:18.000 76467837 9a3294... logstats {device_id=2000, temperature=10, humidity=0.5, vin=0, lon=-119.3123, pressure=340.8312, lat=47.1816}
2020-03-01T11:28:10.000 76467821 67cf4b... logstats {device_id=1000, temperature=9.8, humidity=0.51, vin=0, lon=-122.3385, pressure=1004.6181000000001, lat=47.6143}
2020-03-01T11:27:48.500 76467780 ef2478... logstats {device_id=4000, temperature=10, humidity=0.5, vin=0, lon=-119.3123, pressure=340.8312, lat=47.1816}
2020-03-01T11:27:43.500 76467770 4097d5... logstats {device_id=3000, temperature=12.686100000000007, humidity=6.4892, vin=0, lon=115.8605, pressure=614.5884000000001, lat=-31.9505}
2020-03-01T11:27:39.000 76467761 7f6cf7... logstats {device_id=2000, temperature=10, humidity=0.5, vin=0, lon=-119.3123, pressure=340.8312, lat=47.1816}
2020-03-01T11:27:36.000 76467755 1463f8... logstats {device_id=1000, temperature=9.8, humidity=0.51, vin=0, lon=-122.3385, pressure=1004.6181000000001, lat=47.6143}
2020-03-01T11:27:14.000 76467711 ff7a4d... logstats {device_id=4000, temperature=10, humidity=0.5, vin=0, lon=-119.3123, pressure=340.8312, lat=47.1816}
2020-03-01T11:27:09.000 76467701 24775c... logstats {device_id=3000, temperature=12.686100000000007, humidity=6.4892, vin=0, lon=115.8605, pressure=614.5884000000001, lat=-31.9505}
2020-03-01T11:27:04.500 76467692 bbcdf1... logstats {device_id=2000, temperature=10, humidity=0.5, vin=0, lon=-119.3123, pressure=340.8312, lat=47.1816}
2020-03-01T11:27:01.500 76467686 7bfe5c... logstats {device_id=1000, temperature=9.8, humidity=0.51, vin=0, lon=-122.3385, pressure=1004.6181000000001, lat=47.6143}
2020-03-01T11:26:40.000 76467645 bce393... logstats {device_id=4000, temperature=10, humidity=0.5, vin=0, lon=-119.3123, pressure=340.8312, lat=47.1816}
2020-03-01T11:26:35.000 76467635 7bc1e6... logstats {device_id=3000, temperature=12.686100000000007, humidity=6.4892, vin=0, lon=115.8605, pressure=614.5884000000001, lat=-31.9505}
2020-03-01T11:26:30.500 76467626 5387b7... logstats {device_id=2000, temperature=10, humidity=0.5, vin=0, lon=-119.3123, pressure=340.8312, lat=47.1816}
2020-03-01T11:26:27.500 76467620 69f6c2... logstats {device_id=1000, temperature=9.8, humidity=0.51, vin=0, lon=-122.3385, pressure=1004.6181000000001, lat=47.6143}
2020-03-01T11:26:12.000 76467589 18e4c7... logstats {device_id=4000, temperature=10, humidity=0.5, vin=0, lon=-119.3123, pressure=340.8312, lat=47.1816}
2020-03-01T11:26:01.000 76467567 dd80fd... logstats {device_id=3000, temperature=12.686100000000007, humidity=6.4892, vin=0, lon=115.8605, pressure=614.5884000000001, lat=-31.9505}
2020-03-01T11:25:56.000 76467558 09ae5d... logstats {device_id=2000, temperature=10, humidity=0.5, vin=0, lon=-119.3123, pressure=340.8312, lat=47.1816}
2020-03-01T11:25:52.500 76467551 b46f81... logstats {device_id=1000, temperature=9.8, humidity=0.51, vin=0, lon=-122.3385, pressure=1004.6181000000001, lat=47.6143}
2020-03-01T11:25:31.500 76467510 5165c3... logstats {device_id=4000, temperature=10, humidity=0.5, vin=0, lon=-119.3123, pressure=340.8312, lat=47.1816}
2020-03-01T11:25:25.000 76467497 bc66fc... logstats {device_id=3000, temperature=12.686100000000007, humidity=6.4892, vin=0, lon=115.8605, pressure=614.5884000000001, lat=-31.9505}
2020-03-01T11:25:20.500 76467488 e5d145... logstats {device_id=2000, temperature=10, humidity=0.5, vin=0, lon=-119.3123, pressure=340.8312, lat=47.1816}
2020-03-01T11:25:17.500 76467482 fe5721... logstats {device_id=1000, temperature=9.8, humidity=0.51, vin=0, lon=-122.3385, pressure=1004.6181000000001, lat=47.6143}
2020-03-01T11:24:56.000 76467439 955b0f... logstats {device_id=4000, temperature=10, humidity=0.5, vin=0, lon=-119.3123, pressure=340.8312, lat=47.1816}
2020-03-01T11:24:51.000 76467430 101fe9... logstats {device_id=3000, temperature=12.686100000000007, humidity=6.4892, vin=0, lon=115.8605, pressure=614.5884000000001, lat=-31.9505}
2020-03-01T11:24:46.500 76467421 4db024... logstats {device_id=2000, temperature=10, humidity=0.5, vin=0, lon=-119.3123, pressure=340.8312, lat=47.1816}
2020-03-01T11:24:43.000 76467414 ff288f... logstats {device_id=1000, temperature=9.8, humidity=0.51, vin=0, lon=-122.3385, pressure=1004.6181000000001, lat=47.6143}
2020-03-01T11:24:22.000 76467375 8c86bf... logstats {device_id=4000, temperature=10, humidity=0.5, vin=0, lon=-119.3123, pressure=340.8312, lat=47.1816}
2020-03-01T11:24:16.500 76467364 cc41e1... logstats {device_id=3000, temperature=12.686100000000007, humidity=6.4892, vin=0, lon=115.8605, pressure=614.5884000000001, lat=-31.9505}
2020-03-01T11:24:12.000 76467355 cf8816... logstats {device_id=2000, temperature=10, humidity=0.5, vin=0, lon=-119.3123, pressure=340.8312, lat=47.1816}
2020-03-01T11:24:09.000 76467349 25f885... logstats {device_id=1000, temperature=9.8, humidity=0.51, vin=0, lon=-122.3385, pressure=1004.6181000000001, lat=47.6143}
2020-03-01T11:23:48.000 76467308 2719ae... logstats {device_id=4000, temperature=10, humidity=0.5, vin=0, lon=-119.3123, pressure=340.8312, lat=47.1816}
2020-03-01T11:23:42.500 76467297 a496db... logstats {device_id=3000, temperature=12.686100000000007, humidity=6.4892, vin=0, lon=115.8605, pressure=614.5884000000001, lat=-31.9505}
2020-03-01T11:23:38.000 76467289 7ad97a... logstats {device_id=2000, temperature=10, humidity=0.5, vin=0, lon=-119.3123, pressure=340.8312, lat=47.1816}
2020-03-01T11:23:35.000 76467283 bf8d2f... logstats {device_id=1000, temperature=9.8, humidity=0.51, vin=0, lon=-122.3385, pressure=1004.6181000000001, lat=47.6143}